Montrose, Minnesota
Current Conditions -  °F | °C
As of 1:15 AM on Sunday 23 Nov 2014 (Local Time) from KCFE Reporting Station
Haze Haze  
Wind Chill: 39°   Ceiling: 1100
Heat Index: 42°   Visibility: 4mi
Dew Point: 41°   Wind: 6mph
Humidity: 95%   Direction: 180°S
Pressure: 29.45"   Gusts: NA
Location:  45.06°N, 93.91°W
Report Text: KCFE 230715Z AUTO 18005KT 4SM BR OVC011 06/05 A2945 RMK AO2 T00580050
Loading
Personal Weather Stations






























Interactive Weather Map New forecast layout! Learn more

10-Day Weather Forecast

Advertisements
Track Severe Weather on mobile